Salt Lake City, Utah
Traffic Map
Current Weather Conditions
Salt Lake City, Utah
Scattered Clouds
Scattered Clouds
70°
Feels Like: 70°
Wind Chill: 70° Ceiling: Unl
Heat Index: 70° Visibility: 10mi
Dew Point: 46° Wind: 7mph
Humidity: 42% Direction: 310° (NW)
Pressure: 30.08in Gusts: 0mph
Raw Report DataKSLC 220854Z 31006KT 10SM SCT130 SCT180 21/08 A3008 RMK AO2 SLP127 T02110078 53027
Traffic Incident Summary
Active as of:
Severity:
Category:
InformationThere was an issue retrieving the traffic information for this location. Please try a different location or try again shortly.
Advertisements